Time;durP1;ratioP1;P1;durP2;ratioP2;P2;SDS_P1;SDS_P2;PMS_P1;PMS_P2;Temp;Humidity;BMP_temperature;BMP_pressure;BME280_temperature;BME280_humidity;BME280_pressure;Samples;Min_cycle;Max_cycle;Signal;HPM_P1;HPM_P2
2022/06/19 00:01:03;;;;;;;15.07;4.17;;;;;;;27.46;37.96;99725.47;5030140;28;20395;-72
2022/06/19 00:03:40;;;;;;;13.23;3.47;;;;;;;27.42;37.78;99719.00;5026466;28;20490;-72
2022/06/19 00:06:06;;;;;;;15.95;3.28;;;;;;;27.39;37.86;99703.88;5030635;28;20940;-72
2022/06/19 00:08:31;;;;;;;18.55;3.50;;;;;;;27.43;37.83;99698.34;5030991;28;20407;-72
2022/06/19 00:10:58;;;;;;;12.27;2.95;;;;;;;27.39;38.26;99698.31;5030234;28;20431;-72
2022/06/19 00:13:23;;;;;;;13.32;3.60;;;;;;;27.35;38.21;99694.66;5025460;28;20457;-72
2022/06/19 00:15:49;;;;;;;15.73;3.43;;;;;;;27.28;38.58;99689.78;5033739;28;20477;-72
2022/06/19 00:18:14;;;;;;;15.53;3.50;;;;;;;27.24;38.39;99693.69;5017224;28;20382;-72
2022/06/19 00:20:40;;;;;;;11.70;3.25;;;;;;;27.23;38.57;99684.53;5034935;28;20405;-73
2022/06/19 00:23:06;;;;;;;12.82;3.88;;;;;;;27.20;38.63;99665.03;5032712;28;20499;-72
2022/06/19 00:25:31;;;;;;;12.93;3.43;;;;;;;27.19;38.59;99660.66;5034250;28;20758;-72
2022/06/19 00:27:57;;;;;;;17.93;4.13;;;;;;;27.15;38.39;99657.81;5034739;28;20444;-72
2022/06/19 00:30:22;;;;;;;18.50;3.47;;;;;;;27.18;38.31;99659.84;5034660;28;20382;-72
2022/06/19 00:32:47;;;;;;;16.23;3.73;;;;;;;27.18;38.50;99654.28;5032635;28;20411;-72
2022/06/19 00:35:13;;;;;;;14.20;3.50;;;;;;;27.18;38.32;99648.72;5033991;28;20407;-72
2022/06/19 00:37:38;;;;;;;13.88;3.35;;;;;;;27.18;38.26;99651.50;5034518;28;20399;-72
2022/06/19 00:40:07;;;;;;;15.70;3.90;;;;;;;27.16;38.13;99650.28;5034573;28;20437;-72
2022/06/19 00:42:33;;;;;;;18.23;4.72;;;;;;;27.12;38.10;99643.84;5032413;28;20417;-72
2022/06/19 00:44:58;;;;;;;12.30;3.23;;;;;;;27.00;38.58;99641.28;5034119;28;20395;-72
2022/06/19 00:47:29;;;;;;;12.50;3.37;;;;;;;26.92;38.93;99642.34;5034689;28;20480;-72
2022/06/19 00:50:01;;;;;;;14.90;4.00;;;;;;;26.86;38.90;99641.06;5026215;28;20440;-72
2022/06/19 00:52:32;;;;;;;13.43;3.35;;;;;;;26.87;38.77;99635.13;5032863;28;20501;-72
2022/06/19 00:55:06;;;;;;;13.25;3.35;;;;;;;26.80;39.16;99640.56;5033715;28;20399;-72
2022/06/19 00:57:36;;;;;;;16.55;3.20;;;;;;;26.74;39.12;99631.69;5034054;28;20391;-72
2022/06/19 01:00:09;;;;;;;14.60;3.53;;;;;;;26.73;39.16;99632.09;5033520;28;20403;-72
2022/06/19 01:02:38;;;;;;;15.67;3.87;;;;;;;26.65;39.52;99627.59;5019815;28;20434;-72
2022/06/19 01:05:04;;;;;;;13.40;3.25;;;;;;;26.57;39.87;99632.25;5031961;28;20403;-72
2022/06/19 01:07:29;;;;;;;13.27;3.13;;;;;;;26.53;40.03;99631.38;5034079;28;20406;-72
2022/06/19 01:09:54;;;;;;;11.17;3.70;;;;;;;26.49;40.62;99638.84;5034123;28;20395;-72
2022/06/19 01:12:22;;;;;;;14.87;2.87;;;;;;;26.47;41.14;99645.94;5029273;28;20758;-72
2022/06/19 01:14:50;;;;;;;14.37;3.40;;;;;;;26.42;42.01;99647.03;5030452;28;20805;-72
2022/06/19 01:17:16;;;;;;;10.05;3.00;;;;;;;26.37;42.57;99644.59;5029045;28;20460;-72
2022/06/19 01:19:43;;;;;;;14.03;4.27;;;;;;;26.28;43.41;99644.81;5030197;28;20395;-72
2022/06/19 01:22:22;;;;;;;13.53;3.63;;;;;;;26.19;44.22;99640.66;5026450;28;20406;-72
2022/06/19 01:25:06;;;;;;;11.00;3.60;;;;;;;26.22;44.41;99631.59;5029708;28;20531;-72
2022/06/19 01:30:23;;;;;;;11.07;3.80;;;;;;;26.15;44.63;99640.56;5025766;28;20449;-72
2022/06/19 01:32:50;;;;;;;10.15;3.13;;;;;;;26.15;44.73;99636.97;5029165;28;20422;-72
2022/06/19 01:35:18;;;;;;;14.68;3.63;;;;;;;26.18;44.69;99641.84;5032724;28;20411;-72
2022/06/19 01:37:45;;;;;;;10.23;3.77;;;;;;;26.19;44.75;99640.66;5031362;28;20415;-72
2022/06/19 01:40:17;;;;;;;10.75;3.15;;;;;;;26.19;44.84;99641.47;5031165;28;20416;-72
2022/06/19 01:42:43;;;;;;;10.68;3.50;;;;;;;26.07;45.07;99643.59;5030790;28;20426;-72
2022/06/19 01:45:09;;;;;;;12.30;4.13;;;;;;;26.00;45.33;99638.69;5032765;28;20403;-72
2022/06/19 01:47:35;;;;;;;14.77;3.53;;;;;;;25.95;45.48;99646.53;5026787;28;20466;-72
2022/06/19 01:50:01;;;;;;;15.03;3.60;;;;;;;25.97;45.36;99639.44;4995575;28;20403;-72
2022/06/19 01:52:30;;;;;;;11.50;3.22;;;;;;;26.01;45.19;99640.31;5024315;28;20449;-72
2022/06/19 01:55:03;;;;;;;13.55;3.35;;;;;;;25.92;45.89;99636.16;5029882;28;20409;-72
2022/06/19 01:57:30;;;;;;;11.60;3.88;;;;;;;25.90;45.90;99630.97;5026641;28;20409;-72
2022/06/19 01:59:57;;;;;;;10.05;3.75;;;;;;;25.97;46.03;99633.06;5024261;28;20496;-72
2022/06/19 02:02:23;;;;;;;9.38;3.13;;;;;;;25.97;45.90;99622.78;5024966;28;20946;-72
2022/06/19 02:04:49;;;;;;;12.48;3.38;;;;;;;25.93;45.84;99630.22;5027047;28;20751;-72
2022/06/19 02:07:21;;;;;;;14.80;3.60;;;;;;;25.84;45.83;99637.19;5032139;28;20411;-72
2022/06/19 02:09:48;;;;;;;13.75;3.08;;;;;;;25.79;46.21;99635.50;5014702;28;20786;-72
2022/06/19 02:12:14;;;;;;;11.68;3.70;;;;;;;25.73;46.25;99634.19;5008258;28;20422;-72
2022/06/19 02:14:39;;;;;;;14.98;3.15;;;;;;;25.65;46.50;99638.00;5026675;28;20409;-72
2022/06/19 02:17:12;;;;;;;16.93;3.40;;;;;;;25.53;46.37;99633.38;5029474;28;20395;-72
2022/06/19 02:19:37;;;;;;;17.50;3.88;;;;;;;25.44;46.93;99627.22;5029280;28;20418;-72
2022/06/19 02:22:11;;;;;;;9.13;3.00;;;;;;;25.34;47.20;99633.34;5025559;28;20407;-72
2022/06/19 02:24:37;;;;;;;12.25;3.38;;;;;;;25.30;47.21;99630.50;5025037;28;20403;-72
2022/06/19 02:27:04;;;;;;;18.50;3.58;;;;;;;25.29;47.23;99633.63;5030832;28;20430;-72
2022/06/19 02:29:29;;;;;;;15.82;4.07;;;;;;;25.29;47.41;99628.88;5028333;28;20466;-72
2022/06/19 02:31:56;;;;;;;11.43;3.33;;;;;;;25.24;47.54;99620.03;5031581;28;20821;-72
2022/06/19 02:34:33;;;;;;;15.32;3.53;;;;;;;25.15;47.67;99617.47;5026562;28;20906;-72
2022/06/19 02:37:11;;;;;;;15.77;3.40;;;;;;;25.11;47.66;99613.81;5031156;28;20445;-72
2022/06/19 02:39:42;;;;;;;9.60;2.93;;;;;;;25.10;47.50;99609.44;5030638;28;20407;-72
2022/06/19 02:42:20;;;;;;;11.18;3.33;;;;;;;25.10;47.32;99614.16;5024830;28;20490;-72
2022/06/19 02:44:48;;;;;;;11.60;3.33;;;;;;;25.04;47.74;99597.03;5030770;28;20437;-72
2022/06/19 02:47:14;;;;;;;15.50;3.60;;;;;;;25.02;47.23;99598.56;5025479;28;20414;-72
2022/06/19 02:49:39;;;;;;;10.23;3.17;;;;;;;24.96;47.34;99597.25;5029954;28;20477;-72
2022/06/19 02:52:07;;;;;;;11.18;3.20;;;;;;;24.90;46.94;99588.38;5030436;28;20806;-72
2022/06/19 02:54:32;;;;;;;13.20;3.05;;;;;;;24.85;47.01;99593.41;5028378;28;20409;-72
2022/06/19 02:56:58;;;;;;;15.73;3.57;;;;;;;24.80;47.26;99586.94;5030111;28;20403;-72
2022/06/19 02:59:23;;;;;;;15.60;3.17;;;;;;;24.70;47.52;99589.44;5026619;28;20407;-72
2022/06/19 03:01:48;;;;;;;14.87;3.90;;;;;;;24.64;47.63;99580.63;5027886;28;20886;-72
2022/06/19 03:04:23;;;;;;;8.40;2.83;;;;;;;24.69;47.41;99582.31;5028796;28;20479;-72
2022/06/19 03:06:49;;;;;;;16.00;3.72;;;;;;;24.64;47.61;99579.81;5029844;28;20426;-72
2022/06/19 03:09:15;;;;;;;13.70;2.95;;;;;;;24.59;47.78;99582.88;5011730;28;20942;-72
2022/06/19 03:11:40;;;;;;;12.35;3.00;;;;;;;24.60;47.91;99581.72;5031287;28;20507;-72
2022/06/19 03:14:05;;;;;;;11.63;3.45;;;;;;;24.58;48.28;99587.59;5030010;28;20462;-72
2022/06/19 03:16:31;;;;;;;10.83;2.70;;;;;;;24.59;48.39;99578.13;5029598;28;20439;-72
2022/06/19 03:18:58;;;;;;;12.83;3.10;;;;;;;24.59;48.20;99580.91;5029837;28;20414;-72
2022/06/19 03:21:23;;;;;;;11.52;3.67;;;;;;;24.58;48.50;99576.53;5030757;28;20391;-72
2022/06/19 03:23:49;;;;;;;11.90;3.07;;;;;;;24.60;49.04;99578.94;5022409;28;20929;-72
2022/06/19 03:26:14;;;;;;;12.83;4.10;;;;;;;24.61;48.97;99572.22;5030860;28;20889;-72
2022/06/19 03:28:39;;;;;;;9.37;3.40;;;;;;;24.64;48.94;99571.50;5025065;28;20419;-72
2022/06/19 03:31:04;;;;;;;8.90;2.50;;;;;;;24.60;49.49;99570.63;5030581;28;20403;-72
2022/06/19 03:33:30;;;;;;;13.63;3.77;;;;;;;24.57;49.97;99563.81;5030512;28;20821;-72
2022/06/19 03:35:55;;;;;;;13.00;3.53;;;;;;;24.58;49.84;99570.97;5030384;28;20721;-72
2022/06/19 03:38:21;;;;;;;11.00;2.90;;;;;;;24.55;50.36;99571.69;5029410;28;20445;-72
2022/06/19 03:40:46;;;;;;;12.67;3.67;;;;;;;24.47;50.80;99567.13;5027468;28;20394;-72
2022/06/19 03:43:11;;;;;;;10.47;3.40;;;;;;;24.40;51.60;99575.31;5023272;28;20411;-72
2022/06/19 03:45:37;;;;;;;10.03;3.40;;;;;;;24.37;52.26;99573.22;5028402;28;20415;-72
2022/06/19 03:48:03;;;;;;;11.43;3.28;;;;;;;24.33;52.59;99563.25;5029322;28;20436;-72
2022/06/19 03:50:28;;;;;;;12.13;5.30;;;;;;;24.40;52.76;99574.50;5034914;28;20516;-72
2022/06/19 03:52:53;;;;;;;10.30;6.40;;;;;;;24.46;52.98;99584.94;5032098;28;20885;-72
2022/06/19 03:55:19;;;;;;;9.53;4.03;;;;;;;24.45;53.22;99579.75;5028696;28;20479;-73
2022/06/19 03:57:44;;;;;;;19.27;6.20;;;;;;;24.49;52.82;99583.41;5034188;28;20403;-72
2022/06/19 04:00:14;;;;;;;11.87;4.53;;;;;;;24.45;53.14;99575.00;5033655;28;20406;-72
2022/06/19 04:02:39;;;;;;;13.98;3.83;;;;;;;24.56;52.38;99578.06;5028578;28;20407;-72
2022/06/19 04:05:05;;;;;;;14.33;3.10;;;;;;;24.64;51.73;99572.31;5027846;28;20445;-72
2022/06/19 04:07:30;;;;;;;5.50;2.67;;;;;;;24.68;51.62;99581.50;5026390;28;20417;-72
2022/06/19 04:10:00;;;;;;;10.93;3.50;;;;;;;24.71;51.19;99586.34;5033030;28;20894;-72
2022/06/19 04:12:25;;;;;;;12.63;3.28;;;;;;;24.75;50.44;99589.19;5023450;28;20786;-72
2022/06/19 04:14:52;;;;;;;13.50;3.03;;;;;;;24.70;50.53;99592.22;5034771;28;20390;-72
2022/06/19 04:17:17;;;;;;;12.02;2.80;;;;;;;24.61;50.90;99592.44;5031239;28;20407;-72
2022/06/19 04:19:42;;;;;;;7.57;2.70;;;;;;;24.55;51.10;99590.28;5031576;28;20407;-72
2022/06/19 04:22:08;;;;;;;9.50;3.27;;;;;;;24.54;51.25;99597.78;5033493;28;20498;-72
2022/06/19 04:24:33;;;;;;;11.20;3.50;;;;;;;24.56;50.62;99597.44;5030296;28;20752;-72
2022/06/19 04:27:03;;;;;;;6.50;2.60;;;;;;;24.52;50.58;99593.78;5029058;28;20493;-72
2022/06/19 04:29:28;;;;;;;9.00;3.47;;;;;;;24.44;50.37;99589.22;5031663;28;20414;-72
2022/06/19 04:31:55;;;;;;;11.07;2.80;;;;;;;24.39;50.75;99592.25;5028069;28;20399;-72
2022/06/19 04:34:21;;;;;;;11.18;2.95;;;;;;;24.38;50.60;99599.75;5014529;28;20910;-72
2022/06/19 04:36:46;;;;;;;12.23;3.83;;;;;;;24.40;50.40;99594.69;5012725;28;20424;-72
2022/06/19 04:39:12;;;;;;;14.80;3.27;;;;;;;24.46;50.25;99597.97;5013645;28;20425;-72
2022/06/19 04:41:40;;;;;;;12.47;3.47;;;;;;;24.38;50.72;99598.94;5034020;28;20453;-72
2022/06/19 04:44:09;;;;;;;12.20;3.08;;;;;;;24.38;51.16;99605.28;5026570;28;20412;-72
2022/06/19 04:46:35;;;;;;;13.00;3.75;;;;;;;24.43;51.80;99609.78;5030164;28;20446;-72
2022/06/19 04:49:00;;;;;;;10.30;3.43;;;;;;;24.51;51.88;99608.78;5025127;28;20412;-72
2022/06/19 04:51:25;;;;;;;11.67;3.37;;;;;;;24.57;51.83;99604.56;5024792;28;20514;-72
2022/06/19 04:53:53;;;;;;;8.13;3.50;;;;;;;24.64;51.87;99604.75;5033349;28;20419;-72
2022/06/19 04:56:19;;;;;;;12.88;3.72;;;;;;;24.69;51.62;99604.50;5033765;28;20533;-72
2022/06/19 04:58:45;;;;;;;10.95;3.22;;;;;;;24.71;51.88;99608.50;5025727;28;20412;-72
2022/06/19 05:01:18;;;;;;;9.25;3.45;;;;;;;24.72;51.75;99612.09;5032058;28;20424;-72
2022/06/19 05:03:44;;;;;;;7.70;2.87;;;;;;;24.70;51.73;99612.44;5004730;28;20409;-72
2022/06/19 05:06:09;;;;;;;11.23;3.42;;;;;;;24.73;51.70;99603.38;5031121;28;20534;-72
2022/06/19 05:08:34;;;;;;;10.57;4.27;;;;;;;24.76;51.36;99604.66;5024389;28;20464;-72
2022/06/19 05:11:00;;;;;;;12.00;3.00;;;;;;;24.78;50.75;99594.00;5029536;28;20894;-72
2022/06/19 05:13:25;;;;;;;28.33;5.90;;;;;;;24.83;51.09;99598.50;5030132;28;20419;-73
2022/06/19 05:16:09;;;;;;;12.57;3.83;;;;;;;24.77;53.16;99606.25;5027030;28;20404;-73
2022/06/19 05:18:34;;;;;;;13.07;3.65;;;;;;;24.77;53.80;99600.72;5028993;28;20415;-73
2022/06/19 05:21:04;;;;;;;12.73;3.10;;;;;;;24.79;54.02;99592.84;5032100;28;20457;-73
2022/06/19 05:23:31;;;;;;;14.82;4.53;;;;;;;24.84;53.48;99589.81;5029540;28;20456;-73
2022/06/19 05:25:59;;;;;;;10.17;3.43;;;;;;;24.92;53.34;99588.84;5027350;28;20407;-73
2022/06/19 05:28:24;;;;;;;14.73;3.80;;;;;;;24.99;52.75;99585.44;5029083;28;20424;-73
2022/06/19 05:30:50;;;;;;;15.33;3.43;;;;;;;25.02;52.39;99588.28;5022309;28;20404;-73
2022/06/19 05:33:15;;;;;;;8.37;3.30;;;;;;;25.10;51.58;99586.44;5032665;28;20431;-73
2022/06/19 05:35:40;;;;;;;8.10;2.87;;;;;;;25.18;50.99;99589.03;5031957;28;20411;-73
2022/06/19 05:38:06;;;;;;;11.60;2.73;;;;;;;25.23;50.89;99587.91;5029423;28;20493;-73
2022/06/19 05:40:31;;;;;;;8.23;3.15;;;;;;;25.29;51.11;99587.28;5028933;28;20414;-72
2022/06/19 05:42:57;;;;;;;14.00;3.60;;;;;;;25.34;50.18;99591.75;5029663;28;20430;-72
2022/06/19 05:45:22;;;;;;;11.40;3.10;;;;;;;25.42;49.75;99592.69;5015065;28;20721;-72
2022/06/19 05:47:48;;;;;;;16.57;3.20;;;;;;;25.43;48.98;99597.88;5027181;28;20468;-72
2022/06/19 05:50:13;;;;;;;11.23;3.17;;;;;;;25.48;48.47;99600.38;5030326;28;20411;-72
2022/06/19 05:52:38;;;;;;;13.82;3.65;;;;;;;25.54;47.69;99600.91;5031550;28;20774;-72
2022/06/19 05:55:06;;;;;;;13.95;3.95;;;;;;;25.59;47.25;99606.94;5032767;28;20766;-72
2022/06/19 05:57:31;;;;;;;12.98;3.63;;;;;;;25.66;46.73;99607.09;5026043;28;20407;-72
2022/06/19 05:59:56;;;;;;;11.50;3.42;;;;;;;25.72;46.72;99608.41;5032444;28;20533;-72
2022/06/19 06:02:23;;;;;;;11.43;3.05;;;;;;;25.74;46.56;99611.63;5030925;28;20420;-73
2022/06/19 06:04:48;;;;;;;10.65;3.50;;;;;;;25.78;46.90;99618.03;5031926;28;20447;-73
2022/06/19 06:07:13;;;;;;;10.10;3.40;;;;;;;25.83;46.29;99622.50;5025957;28;20479;-73
2022/06/19 06:09:39;;;;;;;11.20;2.90;;;;;;;25.90;46.21;99621.84;5028141;28;20402;-73
2022/06/19 06:12:05;;;;;;;15.37;3.87;;;;;;;25.94;46.14;99631.03;5027686;28;20410;-72
2022/06/19 06:14:30;;;;;;;12.55;3.60;;;;;;;25.96;46.38;99632.28;5031449;28;20395;-73
2022/06/19 06:16:56;;;;;;;13.80;3.10;;;;;;;26.00;45.94;99630.38;5028575;28;20434;-73
2022/06/19 06:19:21;;;;;;;14.83;3.77;;;;;;;26.06;45.89;99637.22;5030400;28;20403;-73
2022/06/19 06:21:46;;;;;;;14.97;3.07;;;;;;;26.08;46.00;99634.88;5030266;28;20414;-73
2022/06/19 06:24:14;;;;;;;7.23;2.63;;;;;;;26.14;45.69;99624.28;5031892;28;20434;-73
2022/06/19 06:26:39;;;;;;;7.47;3.13;;;;;;;26.17;45.54;99623.59;5026379;28;20406;-73
2022/06/19 06:29:07;;;;;;;12.17;3.20;;;;;;;26.20;45.67;99625.63;5028172;28;20759;-73
2022/06/19 06:31:33;;;;;;;17.48;3.45;;;;;;;26.26;45.64;99629.69;5025362;28;20399;-73
2022/06/19 06:33:58;;;;;;;13.73;3.03;;;;;;;26.33;45.40;99626.25;5024293;28;20490;-72
2022/06/19 06:36:23;;;;;;;11.70;3.57;;;;;;;26.37;45.61;99619.59;5028874;28;20402;-73
2022/06/19 06:38:49;;;;;;;13.23;3.23;;;;;;;26.41;45.61;99620.44;5027003;28;20395;-73
2022/06/19 06:41:15;;;;;;;13.43;3.40;;;;;;;26.47;45.45;99618.97;5010425;28;20418;-72
2022/06/19 06:43:44;;;;;;;11.65;3.13;;;;;;;26.52;45.24;99610.31;5024664;28;20740;-72
2022/06/19 06:46:18;;;;;;;17.60;3.40;;;;;;;26.60;45.54;99619.56;5031204;28;20406;-72
2022/06/19 06:48:44;;;;;;;11.45;3.53;;;;;;;26.66;45.09;99623.63;5030851;28;20445;-72
2022/06/19 06:51:12;;;;;;;11.93;3.63;;;;;;;26.71;45.20;99621.34;5030935;28;20397;-72
2022/06/19 06:53:38;;;;;;;11.63;3.28;;;;;;;26.81;45.32;99626.28;5027660;28;20518;-72
2022/06/19 06:56:04;;;;;;;12.37;3.23;;;;;;;26.92;44.83;99623.69;5030645;28;20470;-73
2022/06/19 06:58:29;;;;;;;12.85;4.22;;;;;;;26.97;44.88;99623.34;5030136;28;20430;-73
2022/06/19 07:00:55;;;;;;;11.87;3.63;;;;;;;27.04;44.16;99626.25;5011560;28;20399;-73
2022/06/19 07:03:21;;;;;;;12.43;3.83;;;;;;;27.09;44.45;99631.50;5012813;28;20445;-73
2022/06/19 07:05:46;;;;;;;18.45;3.80;;;;;;;27.15;44.60;99637.53;5029032;28;20489;-73
2022/06/19 07:08:12;;;;;;;17.13;3.77;;;;;;;27.22;44.14;99635.66;5021812;28;20941;-73
2022/06/19 07:10:37;;;;;;;11.63;3.10;;;;;;;27.26;44.42;99625.41;5027944;28;20393;-74
2022/06/19 07:13:02;;;;;;;14.17;3.53;;;;;;;27.33;44.60;99627.47;5030810;28;20889;-73
2022/06/19 07:15:27;;;;;;;13.07;3.90;;;;;;;27.40;44.28;99627.53;5028464;28;20511;-72
2022/06/19 07:17:53;;;;;;;10.73;3.40;;;;;;;27.49;44.64;99624.53;5029237;28;20402;-72
2022/06/19 07:20:18;;;;;;;15.83;3.90;;;;;;;27.59;44.43;99626.66;5029102;28;20394;-73
2022/06/19 07:22:44;;;;;;;15.15;3.80;;;;;;;27.68;44.18;99625.16;5030381;28;20427;-72
2022/06/19 07:25:17;;;;;;;6.22;2.85;;;;;;;27.80;43.93;99626.88;5030832;28;20396;-73
2022/06/19 07:27:42;;;;;;;14.90;4.03;;;;;;;27.93;44.02;99619.06;5027922;28;20395;-72
2022/06/19 07:30:09;;;;;;;14.43;4.87;;;;;;;28.06;43.64;99612.88;5011693;28;20403;-73
2022/06/19 07:32:34;;;;;;;9.50;4.82;;;;;;;28.16;43.05;99605.81;5028365;28;20414;-73
2022/06/19 07:34:59;;;;;;;9.32;4.45;;;;;;;28.26;42.14;99610.69;5027513;28;20583;-73
2022/06/19 07:37:25;;;;;;;13.30;4.60;;;;;;;28.38;42.41;99604.84;5012516;28;20444;-73
2022/06/19 07:39:50;;;;;;;8.50;3.80;;;;;;;28.57;41.85;99609.38;5028604;28;20416;-73
2022/06/19 07:42:15;;;;;;;7.63;4.37;;;;;;;28.65;41.66;99599.91;5025011;28;20897;-72
2022/06/19 07:44:40;;;;;;;14.43;5.00;;;;;;;28.73;41.35;99607.97;5020121;28;20414;-73
2022/06/19 07:50:10;;;;;;;10.40;4.20;;;;;;;28.90;41.18;99606.50;4987888;28;21008;-72
2022/06/19 07:52:40;;;;;;;6.45;4.32;;;;;;;29.01;41.08;99599.00;5019070;28;20434;-73
2022/06/19 07:55:08;;;;;;;18.95;4.63;;;;;;;29.06;40.32;99603.41;5027114;28;20438;-74
2022/06/19 07:57:33;;;;;;;8.88;4.50;;;;;;;29.11;39.96;99594.69;5026642;28;20797;-73
2022/06/19 07:59:59;;;;;;;8.93;4.20;;;;;;;29.13;39.59;99598.66;5009874;28;20956;-73
2022/06/19 08:02:24;;;;;;;11.20;4.80;;;;;;;29.25;39.57;99597.56;5022635;28;20395;-73
2022/06/19 08:04:51;;;;;;;7.35;4.65;;;;;;;29.29;39.30;99593.59;5026612;28;20446;-73
2022/06/19 08:07:17;;;;;;;9.53;4.57;;;;;;;29.40;39.26;99601.22;5029458;28;20411;-74
2022/06/19 08:09:43;;;;;;;10.57;4.22;;;;;;;29.49;39.13;99590.50;5029467;28;20395;-73
2022/06/19 08:12:09;;;;;;;7.00;4.25;;;;;;;29.59;38.63;99595.31;5028287;28;20457;-73
2022/06/19 08:14:34;;;;;;;14.60;4.80;;;;;;;29.68;38.79;99588.19;5028707;28;20498;-73
2022/06/19 08:16:59;;;;;;;5.07;4.00;;;;;;;29.79;38.38;99591.00;5026175;28;20418;-74
2022/06/19 08:19:25;;;;;;;10.20;4.43;;;;;;;29.83;38.59;99589.06;5029772;28;20407;-73
2022/06/19 08:21:50;;;;;;;8.38;4.35;;;;;;;29.89;37.78;99595.88;5025935;28;20467;-73
2022/06/19 08:24:17;;;;;;;8.30;3.83;;;;;;;29.97;37.18;99597.47;5013054;28;20398;-73
2022/06/19 08:26:42;;;;;;;8.33;4.50;;;;;;;30.02;37.31;99590.69;5028689;28;20425;-73
2022/06/19 08:29:08;;;;;;;8.90;4.15;;;;;;;30.14;37.60;99593.09;5029406;28;20406;-73
2022/06/19 08:31:34;;;;;;;4.97;4.25;;;;;;;30.27;36.09;99603.50;5012463;28;20403;-73
2022/06/19 08:33:59;;;;;;;6.77;4.03;;;;;;;30.38;35.36;99601.53;5027386;28;20425;-73
2022/06/19 08:36:25;;;;;;;9.47;4.03;;;;;;;30.54;35.10;99601.16;5029411;28;20427;-74
2022/06/19 08:39:01;;;;;;;8.25;3.70;;;;;;;30.73;35.25;99605.53;5030209;28;20477;-73
2022/06/19 08:42:25;;;;;;;5.93;3.58;;;;;;;30.78;34.59;99597.56;5032527;28;20477;-73
2022/06/19 08:45:10;;;;;;;9.25;4.10;;;;;;;30.82;34.56;99597.56;4969425;28;20407;-74
2022/06/19 08:47:53;;;;;;;9.63;4.28;;;;;;;30.92;34.43;99602.34;4973021;28;20451;-73
2022/06/19 08:50:19;;;;;;;5.65;3.78;;;;;;;31.03;34.22;99596.75;5016076;28;20406;-73
2022/06/19 08:52:59;;;;;;;4.57;3.77;;;;;;;31.16;33.96;99604.31;5033940;28;20434;-73
2022/06/19 08:55:52;;;;;;;8.40;4.05;;;;;;;31.26;33.69;99600.69;5032853;28;20405;-74
2022/06/19 08:58:57;;;;;;;7.95;3.67;;;;;;;31.42;33.75;99591.06;5031996;28;20510;-73
2022/06/19 09:01:49;;;;;;;8.60;3.90;;;;;;;31.46;33.15;99598.22;5031938;28;20422;-73
2022/06/19 09:07:42;;;;;;;7.60;4.00;;;;;;;31.54;33.03;99602.63;5031756;28;20468;-73
2022/06/19 09:10:13;;;;;;;8.00;3.72;;;;;;;31.66;33.04;99599.38;5029007;28;20996;-73
2022/06/19 09:13:00;;;;;;;6.63;3.77;;;;;;;31.79;32.48;99603.31;5025007;28;20441;-72
2022/06/19 09:15:37;;;;;;;8.53;3.90;;;;;;;31.85;31.99;99598.06;5011509;28;20424;-73
2022/06/19 09:18:06;;;;;;;12.20;3.93;;;;;;;31.99;31.55;99603.59;5009224;28;20894;-73
2022/06/19 09:20:42;;;;;;;6.90;3.77;;;;;;;32.12;31.70;99596.34;5007945;28;20434;-73
2022/06/19 09:23:35;;;;;;;5.68;3.83;;;;;;;32.24;31.49;99595.84;5005638;28;20436;-73
2022/06/19 09:26:26;;;;;;;9.30;3.43;;;;;;;32.36;30.74;99588.97;5005607;28;20439;-72
2022/06/19 09:29:18;;;;;;;5.03;3.55;;;;;;;32.50;31.06;99602.09;5005065;28;20694;-73
2022/06/19 09:31:53;;;;;;;7.40;4.13;;;;;;;32.69;31.28;99607.97;4991784;28;20416;-73
2022/06/19 09:34:22;;;;;;;8.48;4.15;;;;;;;32.84;30.77;99606.59;5007058;28;20494;-73
2022/06/19 09:36:55;;;;;;;7.00;3.70;;;;;;;32.95;30.49;99606.50;5003194;28;20410;-73
2022/06/19 09:39:33;;;;;;;9.50;3.87;;;;;;;33.13;30.30;99609.94;5001733;28;21334;-73
2022/06/19 09:42:08;;;;;;;5.10;3.40;;;;;;;33.31;29.71;99616.19;5005444;28;20425;-73
2022/06/19 09:44:51;;;;;;;9.23;3.63;;;;;;;33.48;29.28;99619.22;5005676;28;20454;-73
2022/06/19 09:47:27;;;;;;;5.70;3.92;;;;;;;33.65;29.91;99621.03;5010710;28;20414;-72
2022/06/19 09:50:05;;;;;;;5.18;3.45;;;;;;;33.81;28.99;99622.03;5005243;28;20415;-73
2022/06/19 09:53:08;;;;;;;12.43;3.90;;;;;;;34.08;28.40;99615.63;5005941;28;21081;-71
2022/06/19 09:55:41;;;;;;;6.87;3.40;;;;;;;34.42;27.89;99614.31;5006684;28;20412;-71
2022/06/19 09:58:21;;;;;;;6.35;3.50;;;;;;;34.88;27.83;99613.56;5006761;28;20497;-72
2022/06/19 10:00:50;;;;;;;6.60;3.45;;;;;;;35.85;26.48;99613.34;5007947;28;20403;-71
2022/06/19 10:03:29;;;;;;;5.07;3.20;;;;;;;37.07;25.21;99615.69;5021354;28;20423;-71
2022/06/19 10:06:11;;;;;;;6.38;3.63;;;;;;;38.17;23.25;99602.78;5023921;28;20415;-71
2022/06/19 10:08:57;;;;;;;5.63;3.57;;;;;;;38.79;23.01;99594.69;5023851;28;20416;-72
2022/06/19 10:11:27;;;;;;;6.77;3.47;;;;;;;39.60;22.36;99600.28;5024443;28;20405;-71
2022/06/19 10:14:30;;;;;;;7.63;3.20;;;;;;;40.08;21.92;99604.50;5030038;28;20449;-71
2022/06/19 10:17:01;;;;;;;8.05;3.35;;;;;;;39.98;21.10;99594.41;5032046;28;20405;-71
2022/06/19 10:19:39;;;;;;;6.18;3.47;;;;;;;40.33;21.08;99589.38;5032028;28;20464;-71
2022/06/19 10:22:17;;;;;;;4.32;3.05;;;;;;;41.00;20.92;99594.28;5013032;28;20450;-71
2022/06/19 10:24:56;;;;;;;9.57;3.10;;;;;;;41.31;20.29;99595.69;5029400;28;20407;-71
2022/06/19 10:27:55;;;;;;;9.23;3.65;;;;;;;41.90;19.27;99601.97;5030120;28;20750;-71
2022/06/19 10:30:36;;;;;;;8.05;3.35;;;;;;;42.45;18.17;99604.63;5031749;28;20403;-71
2022/06/19 10:33:18;;;;;;;9.55;3.42;;;;;;;42.75;17.89;99609.97;5030375;28;20820;-71
2022/06/19 10:35:50;;;;;;;7.50;3.25;;;;;;;43.01;18.28;99610.31;5007908;28;20413;-72
2022/06/19 10:38:34;;;;;;;7.68;2.97;;;;;;;43.31;17.87;99609.09;5028690;28;20439;-72
2022/06/19 10:44:30;;;;;;;8.93;2.92;;;;;;;43.84;17.22;99606.25;5031332;28;20390;-71
2022/06/19 10:47:11;;;;;;;10.02;3.10;;;;;;;44.11;17.25;99607.19;5027341;28;20419;-72
2022/06/19 10:49:42;;;;;;;6.25;3.20;;;;;;;44.21;17.04;99611.53;5017777;28;20910;-72
2022/06/19 10:52:22;;;;;;;7.30;2.97;;;;;;;44.01;17.05;99614.28;5013747;28;20447;-72
2022/06/19 10:55:01;;;;;;;11.07;3.50;;;;;;;44.11;16.71;99613.69;5027035;28;20476;-72
2022/06/19 10:57:46;;;;;;;6.07;3.40;;;;;;;44.57;16.38;99613.16;5023228;28;20448;-72
2022/06/19 11:00:12;;;;;;;4.88;2.92;;;;;;;44.87;16.37;99609.69;5013844;28;20434;-73
2022/06/19 11:06:05;;;;;;;5.78;2.95;;;;;;;44.83;16.55;99611.16;5022769;28;20406;-72
2022/06/19 11:08:35;;;;;;;3.55;2.70;;;;;;;45.14;16.22;99619.94;4979898;28;20415;-72
2022/06/19 11:11:01;;;;;;;6.80;2.97;;;;;;;45.13;16.21;99609.75;5020863;28;20415;-72
2022/06/19 11:14:00;;;;;;;7.97;3.27;;;;;;;45.29;15.99;99609.16;5026583;28;20490;-71
2022/06/19 11:16:26;;;;;;;5.78;3.05;;;;;;;45.51;15.31;99608.66;5027954;28;20403;-72
2022/06/19 11:19:02;;;;;;;7.82;3.35;;;;;;;45.64;15.60;99608.25;5024805;28;20404;-72
2022/06/19 11:21:32;;;;;;;5.82;2.45;;;;;;;45.82;15.15;99607.94;5025912;28;20904;-72
2022/06/19 11:24:03;;;;;;;6.60;2.87;;;;;;;46.11;14.75;99599.09;5012578;28;20905;-71
2022/06/19 11:26:45;;;;;;;5.25;2.55;;;;;;;45.79;15.56;99603.22;5013918;28;20415;-71
2022/06/19 11:29:13;;;;;;;5.60;3.20;;;;;;;45.48;15.44;99591.72;5030448;28;20841;-71
2022/06/19 11:31:59;;;;;;;7.07;3.00;;;;;;;45.64;15.37;99596.81;5026036;28;20410;-71
2022/06/19 11:34:43;;;;;;;7.75;3.42;;;;;;;45.46;15.45;99586.47;5021890;28;20782;-71
2022/06/19 11:37:23;;;;;;;4.43;3.33;;;;;;;45.56;15.19;99590.75;5029557;28;20403;-71
2022/06/19 11:39:58;;;;;;;8.45;3.28;;;;;;;45.26;15.64;99595.06;5013125;28;20453;-72
2022/06/19 11:42:28;;;;;;;7.93;2.80;;;;;;;45.42;15.74;99583.06;5027367;28;20438;-71
2022/06/19 11:44:58;;;;;;;5.30;3.00;;;;;;;45.59;15.16;99578.28;5013036;28;20790;-71
2022/06/19 11:47:34;;;;;;;5.60;2.90;;;;;;;45.76;15.39;99575.59;5031206;28;20399;-72
2022/06/19 11:50:32;;;;;;;8.30;3.30;;;;;;;45.87;14.57;99578.56;5012635;28;20500;-71
2022/06/19 11:53:11;;;;;;;5.38;2.85;;;;;;;45.20;15.78;99580.72;5024154;28;20477;-71
2022/06/19 11:56:13;;;;;;;4.93;2.70;;;;;;;44.64;16.32;99575.56;5030987;28;20940;-71
2022/06/19 11:58:45;;;;;;;7.28;2.97;;;;;;;44.63;16.51;99563.34;5029498;28;20407;-71